createdAt,value
2018-07-15T00:01:16.312Z,6.90
2018-07-15T00:03:46.671Z,6.30
2018-07-15T00:06:16.827Z,7.20
2018-07-15T00:08:46.911Z,7.20
2018-07-15T00:11:17.047Z,7.07
2018-07-15T00:13:47.161Z,6.77
2018-07-15T00:16:17.285Z,5.90
2018-07-15T03:55:28.038Z,6.07
2018-07-15T03:57:58.646Z,5.63
2018-07-15T04:00:28.961Z,5.83
2018-07-15T04:02:59.329Z,5.70
2018-07-15T04:05:35.634Z,6.43
2018-07-15T04:08:05.495Z,5.57
2018-07-15T04:10:35.485Z,5.63
2018-07-15T04:13:05.515Z,5.27
2018-07-15T04:15:35.561Z,5.13
2018-07-15T04:18:06.527Z,5.30
2018-07-15T04:20:37.595Z,5.33
2018-07-15T04:23:07.437Z,5.97
2018-07-15T04:25:37.624Z,6.30
2018-07-15T04:28:07.837Z,5.70
2018-07-15T04:30:38.163Z,6.07
2018-07-15T04:33:08.279Z,6.37
2018-07-15T04:35:38.287Z,6.07
2018-07-15T04:38:08.602Z,6.80
2018-07-15T04:40:38.984Z,6.17
2018-07-15T04:43:09.183Z,6.10
2018-07-15T04:45:39.163Z,6.37
2018-07-15T04:48:09.227Z,5.97
2018-07-15T04:50:39.425Z,6.53
2018-07-15T04:53:09.879Z,6.67
2018-07-15T04:55:40.248Z,6.57
2018-07-15T04:58:10.325Z,8.63
2018-07-15T05:00:40.351Z,7.40
2018-07-15T05:03:52.991Z,8.10
2018-07-15T05:06:23.212Z,6.17
2018-07-15T05:08:53.245Z,5.77
2018-07-15T05:11:23.572Z,6.57
2018-07-15T05:16:28.759Z,6.17
2018-07-15T05:18:59.122Z,6.00
2018-07-15T05:21:29.492Z,6.03
2018-07-15T05:23:59.553Z,6.13
2018-07-15T05:26:29.938Z,6.20
2018-07-15T05:28:59.989Z,6.17
2018-07-15T05:31:29.869Z,6.60
2018-07-15T05:34:00.113Z,6.33
2018-07-15T05:36:30.183Z,6.00
2018-07-15T05:39:00.458Z,5.47
2018-07-15T05:41:30.475Z,6.43
2018-07-15T05:44:00.752Z,6.60
2018-07-15T05:46:30.644Z,5.80
2018-07-15T05:49:00.876Z,5.00
2018-07-15T05:51:30.843Z,5.23
2018-07-15T05:54:00.784Z,5.63
2018-07-15T05:56:30.749Z,5.63
2018-07-15T05:59:00.847Z,6.10
2018-07-15T06:01:30.763Z,7.07
2018-07-15T06:04:00.740Z,6.77
2018-07-15T06:06:30.556Z,6.73
2018-07-15T06:09:00.281Z,6.27
2018-07-15T06:11:30.518Z,5.80
2018-07-15T06:14:00.345Z,5.73
2018-07-15T06:16:30.663Z,6.03
2018-07-15T06:19:00.673Z,6.50
2018-07-15T06:21:30.977Z,5.43
2018-07-15T06:24:00.853Z,5.53
2018-07-15T06:26:31.107Z,5.77
2018-07-15T06:29:01.189Z,5.67
2018-07-15T06:31:31.743Z,5.30
2018-07-15T06:34:01.738Z,5.43
2018-07-15T06:36:31.797Z,4.83
2018-07-15T06:39:01.726Z,5.23
2018-07-15T06:41:31.738Z,4.40
2018-07-15T06:44:01.986Z,13.70
2018-07-15T06:46:32.429Z,5.00
2018-07-15T06:49:02.816Z,4.87
2018-07-15T06:51:32.935Z,4.60
2018-07-15T06:54:03.213Z,4.97
2018-07-15T06:56:33.329Z,4.80
2018-07-15T06:59:03.617Z,4.60
2018-07-15T07:01:33.786Z,4.63
2018-07-15T07:04:03.970Z,5.60
2018-07-15T07:06:33.880Z,4.70
2018-07-15T07:09:04.983Z,4.97
2018-07-15T07:11:36.076Z,4.60
2018-07-15T07:14:06.145Z,5.37
2018-07-15T07:16:36.544Z,5.13
2018-07-15T07:19:06.399Z,4.13
2018-07-15T07:21:36.379Z,4.77
2018-07-15T07:24:06.425Z,4.40
2018-07-15T07:26:36.701Z,4.53
2018-07-15T07:29:06.757Z,4.30
2018-07-15T07:31:36.649Z,4.00
2018-07-15T07:34:06.688Z,3.83
2018-07-15T07:36:36.371Z,3.70
2018-07-15T07:39:07.158Z,3.40
2018-07-15T07:41:37.172Z,3.50
2018-07-15T07:44:07.245Z,3.53
2018-07-15T07:46:37.184Z,3.67
2018-07-15T07:49:07.468Z,3.30
2018-07-15T07:51:37.447Z,3.00
2018-07-15T07:54:07.345Z,4.53
2018-07-15T07:56:37.249Z,4.00
2018-07-15T07:59:08.135Z,3.33
2018-07-15T08:01:38.225Z,3.20
2018-07-15T08:04:08.457Z,3.70
2018-07-15T08:06:38.326Z,2.90
2018-07-15T08:09:08.505Z,3.00
2018-07-15T08:11:38.411Z,2.93
2018-07-15T08:14:08.109Z,2.67
2018-07-15T08:16:38.311Z,2.60
2018-07-15T08:19:08.134Z,3.23
2018-07-15T08:21:37.994Z,2.83
2018-07-15T08:24:08.118Z,2.57
2018-07-15T08:26:38.093Z,2.90
2018-07-15T08:29:07.991Z,2.70
2018-07-15T08:31:38.162Z,3.37
2018-07-15T08:34:07.881Z,2.90
2018-07-15T08:36:37.650Z,2.93
2018-07-15T08:39:07.806Z,3.53
2018-07-15T08:41:37.863Z,3.10
2018-07-15T08:44:07.768Z,2.80
2018-07-15T08:46:37.752Z,3.13
2018-07-15T08:49:07.705Z,3.20
2018-07-15T08:51:37.943Z,3.10
2018-07-15T08:54:07.943Z,3.20
2018-07-15T08:56:40.653Z,3.30
2018-07-15T08:59:10.607Z,2.90
2018-07-15T09:01:40.704Z,3.23
2018-07-15T09:04:11.177Z,2.70
2018-07-15T09:06:40.992Z,3.83
2018-07-15T09:09:10.748Z,3.20
2018-07-15T09:11:41.218Z,3.33
2018-07-15T09:14:11.113Z,2.77
2018-07-15T09:16:41.379Z,3.50
2018-07-15T09:19:11.589Z,2.87
2018-07-15T09:21:41.949Z,3.37
2018-07-15T09:24:11.829Z,3.40
2018-07-15T09:26:41.927Z,3.00
2018-07-15T09:29:12.020Z,2.93
2018-07-15T09:31:41.899Z,2.93
2018-07-15T09:34:11.759Z,4.13
2018-07-15T09:36:42.018Z,3.70
2018-07-15T09:39:12.005Z,3.30
2018-07-15T09:41:42.608Z,3.07
2018-07-15T09:44:12.987Z,3.03
2018-07-15T09:46:43.473Z,3.80
2018-07-15T09:49:13.224Z,2.73
2018-07-15T09:51:43.423Z,3.27
2018-07-15T09:54:13.615Z,2.90
2018-07-15T09:56:43.509Z,3.03
2018-07-15T09:59:13.506Z,3.13
2018-07-15T10:01:43.580Z,3.80
2018-07-15T10:04:13.633Z,3.43
2018-07-15T10:06:43.964Z,2.63
2018-07-15T10:09:13.652Z,2.70
2018-07-15T10:11:43.613Z,2.57
2018-07-15T10:14:13.757Z,2.77
2018-07-15T10:16:44.230Z,2.93
2018-07-15T10:19:14.314Z,3.03
2018-07-15T10:21:44.317Z,2.53
2018-07-15T10:24:14.371Z,2.87
2018-07-15T10:26:44.412Z,2.83
2018-07-15T10:29:14.037Z,2.80
2018-07-15T10:31:43.875Z,2.77
2018-07-15T10:34:13.723Z,3.37
2018-07-15T10:36:43.575Z,3.30
2018-07-15T10:39:14.471Z,2.97
2018-07-15T10:41:44.541Z,3.00
2018-07-15T10:44:14.924Z,3.10
2018-07-15T10:46:44.611Z,2.93
2018-07-15T10:49:14.483Z,3.23
2018-07-15T10:51:44.496Z,3.23
2018-07-15T10:54:14.412Z,2.70
2018-07-15T10:56:44.167Z,2.70
2018-07-15T10:59:14.073Z,3.00
2018-07-15T11:01:44.193Z,2.80
2018-07-15T11:04:14.641Z,2.90
2018-07-15T11:06:44.810Z,2.40
2018-07-15T11:09:14.658Z,2.80
2018-07-15T11:11:44.351Z,2.93
2018-07-15T11:14:14.248Z,2.57
2018-07-15T11:16:44.534Z,2.63
2018-07-15T11:19:14.596Z,2.50
2018-07-15T11:21:44.381Z,2.63
2018-07-15T11:24:14.345Z,2.70
2018-07-15T11:26:44.187Z,2.40
2018-07-15T11:29:14.472Z,2.40
2018-07-15T11:31:44.549Z,2.03
2018-07-15T11:34:14.970Z,2.17
2018-07-15T11:36:45.172Z,2.40
2018-07-15T11:39:15.253Z,2.97
2018-07-15T11:41:45.284Z,2.47
2018-07-15T11:44:15.353Z,2.47
2018-07-15T11:46:45.587Z,2.73
2018-07-15T11:49:15.439Z,2.33
2018-07-15T11:51:45.247Z,2.53
2018-07-15T11:54:14.924Z,2.83
2018-07-15T11:56:44.684Z,2.50
2018-07-15T11:59:14.842Z,3.07
2018-07-15T12:01:44.789Z,3.00
2018-07-15T12:04:14.429Z,2.00
2018-07-15T12:06:44.280Z,7.87
2018-07-15T12:09:14.000Z,2.20
2018-07-15T12:11:43.918Z,2.80
2018-07-15T12:14:13.917Z,2.43
2018-07-15T12:16:44.151Z,2.80
2018-07-15T12:19:14.197Z,2.67
2018-07-15T12:21:43.981Z,2.80
2018-07-15T12:24:13.639Z,2.50
2018-07-15T12:26:43.710Z,2.33
2018-07-15T12:29:13.655Z,2.40
2018-07-15T12:31:43.543Z,2.47
2018-07-15T12:34:13.380Z,2.53
2018-07-15T12:36:43.610Z,2.87
2018-07-15T12:39:13.414Z,2.20
2018-07-15T12:41:43.419Z,2.13
2018-07-15T12:44:13.099Z,2.40
2018-07-15T12:46:43.091Z,2.60
2018-07-15T12:49:13.075Z,2.07
2018-07-15T12:51:43.000Z,2.10
2018-07-15T12:54:13.097Z,2.03
2018-07-15T12:56:43.082Z,2.20
2018-07-15T12:59:12.941Z,2.93
2018-07-15T13:01:42.875Z,3.43
2018-07-15T13:04:13.106Z,2.40
2018-07-15T13:06:43.259Z,2.30
2018-07-15T13:09:13.283Z,2.60
2018-07-15T13:11:43.155Z,2.30
2018-07-15T13:14:13.169Z,2.50
2018-07-15T13:16:43.039Z,2.60
2018-07-15T13:19:13.390Z,2.73
2018-07-15T13:21:43.693Z,2.23
2018-07-15T13:24:13.519Z,3.30
2018-07-15T13:26:43.384Z,2.90
2018-07-15T13:29:13.296Z,2.43
2018-07-15T13:31:43.348Z,6.07
2018-07-15T13:34:13.572Z,2.90
2018-07-15T13:36:43.564Z,3.43
2018-07-15T13:39:13.465Z,2.83
2018-07-15T13:41:43.559Z,2.80
2018-07-15T13:44:13.632Z,2.90
2018-07-15T13:46:43.735Z,3.17
2018-07-15T13:49:13.485Z,2.80
2018-07-15T13:51:43.240Z,2.50
2018-07-15T13:54:13.377Z,2.70
2018-07-15T13:56:43.185Z,2.80
2018-07-15T13:59:13.192Z,2.50
2018-07-15T14:01:43.204Z,2.60
2018-07-15T14:04:12.927Z,2.70
2018-07-15T14:06:42.672Z,2.60
2018-07-15T14:09:12.412Z,2.70
2018-07-15T14:11:42.123Z,2.20
2018-07-15T14:14:11.979Z,2.90
2018-07-15T14:16:41.679Z,2.33
2018-07-15T14:19:11.659Z,3.43
2018-07-15T14:21:41.328Z,12.63
2018-07-15T14:24:11.140Z,3.90
2018-07-15T14:26:40.813Z,3.70
2018-07-15T14:29:10.593Z,2.47
2018-07-15T14:31:40.714Z,2.70
2018-07-15T14:34:10.397Z,2.30
2018-07-15T14:36:40.196Z,2.70
2018-07-15T14:39:09.933Z,2.43
2018-07-15T14:41:40.393Z,2.53
2018-07-15T14:44:10.619Z,2.10
2018-07-15T14:46:40.548Z,3.57
2018-07-15T14:49:10.575Z,2.60
2018-07-15T14:51:40.530Z,2.27
2018-07-15T14:54:10.501Z,2.57
2018-07-15T14:56:40.268Z,2.00
2018-07-15T14:59:10.384Z,2.30
2018-07-15T15:01:40.098Z,2.23
2018-07-15T15:04:09.771Z,2.30
2018-07-15T15:06:39.477Z,2.17
2018-07-15T15:09:09.732Z,1.90
2018-07-15T15:11:39.596Z,3.67
2018-07-15T15:14:09.307Z,3.87
2018-07-15T15:16:39.004Z,2.30
2018-07-15T15:19:09.150Z,2.60
2018-07-15T15:21:38.964Z,2.20
2018-07-15T15:24:08.721Z,1.83
2018-07-15T15:26:38.995Z,2.10
2018-07-15T15:29:08.930Z,2.47
2018-07-15T15:31:38.790Z,2.20
2018-07-15T15:34:08.592Z,2.23
2018-07-15T15:36:38.355Z,2.20
2018-07-15T15:39:08.088Z,2.10
2018-07-15T15:41:37.876Z,2.10
2018-07-15T15:44:07.935Z,2.10
2018-07-15T15:46:37.632Z,2.07
2018-07-15T15:49:07.443Z,2.37
2018-07-15T15:51:37.238Z,2.03
2018-07-15T15:54:07.459Z,2.20
2018-07-15T15:56:37.460Z,2.03
2018-07-15T15:59:07.197Z,2.57
2018-07-15T16:01:36.899Z,3.30
2018-07-15T16:04:07.753Z,3.03
2018-07-15T16:06:37.480Z,2.67
2018-07-15T16:09:09.006Z,2.20
2018-07-15T16:11:38.780Z,2.50
2018-07-15T16:14:08.593Z,2.20
2018-07-15T16:16:38.344Z,2.50
2018-07-15T16:19:08.026Z,2.40
2018-07-15T16:21:37.794Z,2.40
2018-07-15T16:24:07.542Z,2.10
2018-07-15T16:26:37.606Z,2.20
2018-07-15T16:29:07.694Z,2.30
2018-07-15T16:31:37.460Z,2.07
2018-07-15T16:34:07.263Z,2.50
2018-07-15T16:36:37.164Z,2.50
2018-07-15T16:39:08.119Z,2.40
2018-07-15T16:41:38.012Z,2.60
2018-07-15T16:44:07.708Z,2.50
2018-07-15T16:46:37.664Z,2.37
2018-07-15T16:49:07.691Z,2.17
2018-07-15T16:51:37.976Z,2.20
2018-07-15T16:54:07.725Z,2.10
2018-07-15T16:56:37.487Z,2.40
2018-07-15T16:59:07.182Z,2.30
2018-07-15T17:01:37.189Z,2.53
2018-07-15T17:04:06.984Z,2.50
2018-07-15T17:06:36.818Z,3.30
2018-07-15T17:09:06.987Z,7.10
2018-07-15T17:11:36.857Z,2.20
2018-07-15T17:14:06.858Z,2.77
2018-07-15T17:16:36.592Z,2.60
2018-07-15T17:19:06.351Z,2.77
2018-07-15T17:21:36.041Z,2.60
2018-07-15T17:24:05.724Z,2.70
2018-07-15T17:26:35.713Z,2.70
2018-07-15T17:29:05.633Z,2.83
2018-07-15T17:31:35.429Z,2.57
2018-07-15T17:34:05.611Z,2.70
2018-07-15T17:36:35.339Z,2.90
2018-07-15T17:39:05.750Z,2.70
2018-07-15T17:41:35.760Z,2.90
2018-07-15T17:44:05.507Z,3.13
2018-07-15T17:46:35.225Z,2.90
2018-07-15T17:49:04.925Z,3.00
2018-07-15T17:51:34.648Z,11.43
2018-07-15T17:54:04.379Z,3.10
2018-07-15T17:56:34.168Z,3.60
2018-07-15T17:59:04.139Z,4.30
2018-07-15T18:01:34.317Z,3.70
2018-07-15T18:04:04.598Z,3.40
2018-07-15T18:06:34.456Z,3.20
2018-07-15T18:09:05.217Z,3.37
2018-07-15T18:11:34.920Z,3.40
2018-07-15T18:14:04.749Z,3.40
2018-07-15T18:16:34.442Z,3.07
2018-07-15T18:19:04.121Z,3.37
2018-07-15T18:21:33.848Z,3.30
2018-07-15T18:24:03.876Z,3.03
2018-07-15T18:26:33.619Z,3.80
2018-07-15T18:29:03.290Z,3.20
2018-07-15T18:31:32.981Z,4.10
2018-07-15T18:34:02.700Z,5.97
2018-07-15T18:36:32.748Z,11.10
2018-07-15T18:39:02.564Z,3.80
2018-07-15T18:41:32.352Z,4.67
2018-07-15T18:44:02.288Z,3.57
2018-07-15T18:46:32.003Z,4.20
2018-07-15T18:49:01.779Z,5.67
2018-07-15T18:51:31.601Z,15.70
2018-07-15T18:54:01.376Z,7.17
2018-07-15T18:56:31.478Z,5.03
2018-07-15T18:59:01.209Z,4.33
2018-07-15T19:01:30.955Z,5.17
2018-07-15T19:04:00.940Z,5.03
2018-07-15T19:06:30.744Z,4.93
2018-07-15T19:09:00.719Z,9.20
2018-07-15T19:11:30.703Z,5.53
2018-07-15T19:14:00.444Z,5.20
2018-07-15T19:16:30.143Z,7.00
2018-07-15T19:19:00.799Z,5.60
2018-07-15T19:21:30.555Z,4.80
2018-07-15T19:24:00.332Z,4.77
2018-07-15T19:26:30.076Z,4.67
2018-07-15T19:28:59.782Z,5.97
2018-07-15T19:31:29.594Z,7.97
2018-07-15T19:33:59.435Z,5.03
2018-07-15T19:36:30.157Z,5.03
2018-07-15T19:39:00.122Z,5.40
2018-07-15T19:41:29.884Z,5.57
2018-07-15T19:43:59.534Z,6.10
2018-07-15T19:46:29.223Z,5.77
2018-07-15T19:48:58.943Z,5.90
2018-07-15T19:51:28.808Z,5.17
2018-07-15T19:53:58.578Z,4.50
2018-07-15T19:56:28.313Z,5.13
2018-07-15T19:58:58.473Z,4.90
2018-07-15T20:01:28.444Z,4.60
2018-07-15T20:03:58.212Z,4.60
2018-07-15T20:06:27.889Z,4.47
2018-07-15T20:08:57.590Z,5.10
2018-07-15T20:11:27.281Z,4.80
2018-07-15T20:13:57.003Z,4.60
2018-07-15T20:16:26.716Z,5.23
2018-07-15T20:18:56.860Z,4.17
2018-07-15T20:21:26.567Z,4.10
2018-07-15T20:23:56.325Z,3.97
2018-07-15T20:26:26.437Z,3.87
2018-07-15T20:28:56.263Z,3.80
2018-07-15T20:31:25.977Z,4.30
2018-07-15T20:33:56.059Z,3.90
2018-07-15T20:36:25.811Z,4.43
2018-07-15T20:38:55.633Z,3.87
2018-07-15T20:41:25.544Z,4.40
2018-07-15T20:43:55.326Z,4.10
2018-07-15T20:46:25.064Z,3.50
2018-07-15T20:48:54.812Z,3.70
2018-07-15T20:51:24.977Z,3.70
2018-07-15T20:53:54.676Z,3.80
2018-07-15T20:56:24.557Z,4.50
2018-07-15T20:58:54.507Z,4.47
2018-07-15T21:01:24.485Z,3.87
2018-07-15T21:03:54.497Z,4.00
2018-07-15T21:06:24.266Z,3.53
2018-07-15T21:08:54.739Z,4.27
2018-07-15T21:11:24.727Z,3.00
2018-07-15T21:13:54.584Z,3.10
2018-07-15T21:16:24.617Z,3.83
2018-07-15T21:18:54.678Z,3.50
2018-07-15T21:21:24.734Z,3.13
2018-07-15T21:23:54.836Z,3.13
2018-07-15T21:26:24.606Z,3.10
2018-07-15T21:28:54.326Z,3.40
2018-07-15T21:31:24.235Z,3.30
2018-07-15T21:33:54.148Z,3.63
2018-07-15T21:36:23.839Z,3.73
2018-07-15T21:38:53.696Z,3.40
2018-07-15T21:41:23.796Z,3.90
2018-07-15T21:43:53.502Z,3.67
2018-07-15T21:46:23.345Z,3.30
2018-07-15T21:48:53.116Z,3.10
2018-07-15T21:51:22.858Z,3.57
2018-07-15T21:53:52.612Z,3.20
2018-07-15T21:56:22.474Z,3.40
2018-07-15T21:58:52.185Z,3.60
2018-07-15T22:01:22.361Z,3.70
2018-07-15T22:03:52.025Z,3.57
2018-07-15T22:06:32.520Z,3.40
2018-07-15T22:09:13.032Z,4.03
2018-07-15T22:11:42.929Z,3.60
2018-07-15T22:14:12.832Z,3.47
2018-07-15T22:16:42.884Z,3.47
2018-07-15T22:19:12.689Z,3.67
2018-07-15T22:21:42.367Z,4.00
2018-07-15T22:24:12.249Z,3.50
2018-07-15T22:26:42.165Z,3.80
2018-07-15T22:29:11.881Z,3.90
2018-07-15T22:31:41.952Z,3.37
2018-07-15T22:34:11.995Z,3.57
2018-07-15T22:36:41.748Z,3.53
2018-07-15T22:39:11.471Z,3.60
2018-07-15T22:41:41.217Z,3.50
2018-07-15T22:44:10.936Z,3.93
2018-07-15T22:46:41.239Z,4.40
2018-07-15T22:49:11.607Z,3.80
2018-07-15T22:51:41.393Z,4.63
2018-07-15T22:54:11.119Z,4.10
2018-07-15T22:56:41.433Z,4.03
2018-07-15T22:59:11.281Z,4.10
2018-07-15T23:01:41.185Z,3.90
2018-07-15T23:04:10.881Z,4.10
2018-07-15T23:06:40.571Z,4.00
2018-07-15T23:09:10.773Z,4.13
2018-07-15T23:11:40.565Z,3.77
2018-07-15T23:14:10.457Z,4.40
2018-07-15T23:16:40.474Z,4.33
2018-07-15T23:19:10.342Z,3.90
2018-07-15T23:21:40.711Z,3.90
2018-07-15T23:24:10.553Z,4.23
2018-07-15T23:26:40.447Z,3.90
2018-07-15T23:29:10.225Z,4.40
2018-07-15T23:31:40.134Z,4.53
2018-07-15T23:34:10.383Z,4.50
2018-07-15T23:36:40.137Z,4.10
2018-07-15T23:39:09.869Z,4.37
2018-07-15T23:41:39.644Z,4.40
2018-07-15T23:44:10.040Z,4.10
2018-07-15T23:46:40.146Z,3.77
2018-07-15T23:49:10.341Z,4.30
2018-07-15T23:51:40.135Z,3.80
2018-07-15T23:54:09.874Z,4.30
2018-07-15T23:56:39.614Z,4.50
2018-07-15T23:59:09.314Z,3.73
